LFSB METAR :   2017/01/21 01:30 LFSB 210130Z AUTO 09007KT 5000 BR FEW012 M06/M08 Q1029 NOSIG

TAF  2017/01/20 18:21 TAF LFSB 201714Z 2018/2118 09006KT 7000 FEW015 PROB30 2018/2022 4500 BR PROB40 2022/2109 3500 BR